Time;durP1;ratioP1;P1;durP2;ratioP2;P2;SDS_P1;SDS_P2;PMS_P1;PMS_P2;Temp;Humidity;BMP_temperature;BMP_pressure;BME280_temperature;BME280_humidity;BME280_pressure;Samples;Min_cycle;Max_cycle;Signal;HPM_P1;HPM_P2
2022/08/30 00:01:26;;;;;;;;;;;23.60;85.30;;;;;;5096189;28;19912;-49
2022/08/30 00:03:53;;;;;;;;;;;23.60;85.30;;;;;;5096503;28;19967;-53
2022/08/30 00:06:19;;;;;;;;;;;23.60;85.30;;;;;;5096694;28;19908;-53
2022/08/30 00:08:47;;;;;;;;;;;23.60;85.30;;;;;;5096422;28;19908;-54
2022/08/30 00:11:16;;;;;;;;;;;23.60;85.30;;;;;;5096335;28;19998;-54
2022/08/30 00:13:42;;;;;;;;;;;23.60;85.30;;;;;;5096036;28;20000;-52
2022/08/30 00:16:07;;;;;;;;;;;23.60;85.30;;;;;;5094934;28;19908;-55
2022/08/30 00:18:33;;;;;;;;;;;23.60;85.30;;;;;;5096187;28;19912;-54
2022/08/30 00:20:59;;;;;;;;;;;23.60;85.40;;;;;;5096163;28;20386;-52
2022/08/30 00:23:25;;;;;;;;;;;23.60;85.30;;;;;;5094829;28;19975;-53
2022/08/30 00:25:51;;;;;;;;;;;23.60;85.30;;;;;;5096050;28;19908;-55
2022/08/30 00:28:17;;;;;;;;;;;23.60;85.30;;;;;;5096129;28;20374;-53
2022/08/30 00:30:43;;;;;;;;;;;23.60;85.30;;;;;;5095504;28;19909;-52
2022/08/30 00:33:09;;;;;;;;;;;23.60;85.30;;;;;;5095796;28;19931;-54
2022/08/30 00:35:35;;;;;;;;;;;23.60;85.30;;;;;;5095827;28;19908;-55
2022/08/30 00:38:01;;;;;;;;;;;23.50;85.30;;;;;;5095407;28;19933;-53
2022/08/30 00:40:27;;;;;;;;;;;23.60;85.30;;;;;;5095695;28;19908;-53
2022/08/30 00:42:53;;;;;;;;;;;23.50;85.30;;;;;;5095376;28;19920;-53
2022/08/30 00:45:21;;;;;;;;;;;23.60;85.30;;;;;;5095645;28;20362;-53
2022/08/30 00:47:46;;;;;;;;;;;23.60;85.30;;;;;;5095597;28;20041;-53
2022/08/30 00:50:13;;;;;;;;;;;23.60;85.30;;;;;;5095299;28;19953;-55
2022/08/30 00:52:40;;;;;;;;;;;23.60;85.30;;;;;;5094127;28;19914;-52
2022/08/30 00:55:06;;;;;;;;;;;23.50;85.30;;;;;;5095772;28;19908;-53
2022/08/30 00:57:33;;;;;;;;;;;23.60;85.30;;;;;;5095139;28;19908;-50
2022/08/30 00:59:58;;;;;;;;;;;23.60;85.30;;;;;;5095057;28;20359;-53
2022/08/30 01:02:25;;;;;;;;;;;23.50;85.30;;;;;;5093657;28;19924;-51
2022/08/30 01:04:51;;;;;;;;;;;23.50;85.30;;;;;;5093231;28;19913;-53
2022/08/30 01:07:17;;;;;;;;;;;23.50;85.30;;;;;;5094940;28;19908;-55
2022/08/30 01:09:43;;;;;;;;;;;23.60;85.30;;;;;;5094821;28;19930;-52
2022/08/30 01:12:09;;;;;;;;;;;23.50;85.30;;;;;;5094885;28;19908;-54
2022/08/30 01:14:34;;;;;;;;;;;23.50;85.30;;;;;;5094825;28;19995;-51
2022/08/30 01:17:00;;;;;;;;;;;23.50;85.30;;;;;;5093824;28;19958;-49
2022/08/30 01:19:44;;;;;;;;;;;23.50;85.30;;;;;;5095008;28;19974;-55
2022/08/30 01:22:28;;;;;;;;;;;23.50;85.30;;;;;;5094937;28;19939;-56
2022/08/30 01:24:55;;;;;;;;;;;23.50;85.40;;;;;;5094875;28;19927;-52
2022/08/30 01:27:21;;;;;;;;;;;23.50;85.30;;;;;;5094826;28;19908;-52
2022/08/30 01:29:47;;;;;;;;;;;23.50;85.30;;;;;;5094490;28;19955;-50
2022/08/30 01:32:19;;;;;;;;;;;23.50;85.30;;;;;;5095085;28;20275;-55
2022/08/30 01:34:48;;;;;;;;;;;23.60;85.40;;;;;;5094793;28;19916;-51
2022/08/30 01:37:16;;;;;;;;;;;23.50;85.30;;;;;;5094647;28;19916;-53
2022/08/30 01:39:44;;;;;;;;;;;23.50;85.30;;;;;;5094720;28;19915;-54
2022/08/30 01:42:09;;;;;;;;;;;23.50;85.30;;;;;;5094634;28;19998;-51
2022/08/30 01:44:35;;;;;;;;;;;23.50;85.30;;;;;;5094277;28;19996;-53
2022/08/30 01:47:00;;;;;;;;;;;23.50;85.30;;;;;;5094563;28;19919;-54
2022/08/30 01:49:25;;;;;;;;;;;23.50;85.30;;;;;;5094596;28;19908;-54
2022/08/30 01:51:51;;;;;;;;;;;23.50;85.30;;;;;;5094458;28;19985;-52
2022/08/30 01:54:16;;;;;;;;;;;23.50;85.30;;;;;;5094161;28;19908;-52
2022/08/30 01:56:42;;;;;;;;;;;23.50;85.30;;;;;;5094456;28;20006;-53
2022/08/30 01:59:07;;;;;;;;;;;23.50;85.30;;;;;;5094088;28;20271;-55
2022/08/30 02:01:35;;;;;;;;;;;23.50;85.30;;;;;;5094114;28;19943;-53
2022/08/30 02:04:01;;;;;;;;;;;23.50;85.30;;;;;;5094391;28;20015;-55
2022/08/30 02:06:26;;;;;;;;;;;23.50;85.30;;;;;;5093043;28;19955;-51
2022/08/30 02:08:52;;;;;;;;;;;23.50;85.30;;;;;;5094268;28;20341;-52
2022/08/30 02:11:18;;;;;;;;;;;23.50;85.30;;;;;;5093987;28;19913;-52
2022/08/30 02:13:43;;;;;;;;;;;23.50;85.30;;;;;;5094260;28;20386;-51
2022/08/30 02:16:10;;;;;;;;;;;23.50;85.30;;;;;;5093550;28;19909;-53
2022/08/30 02:18:37;;;;;;;;;;;23.50;85.30;;;;;;5092999;28;19908;-56
2022/08/30 02:21:03;;;;;;;;;;;23.50;85.40;;;;;;5093925;28;19953;-51
2022/08/30 02:23:28;;;;;;;;;;;23.50;85.30;;;;;;5094044;28;19962;-54
2022/08/30 02:25:53;;;;;;;;;;;23.50;85.30;;;;;;5094106;28;20351;-54
2022/08/30 02:28:19;;;;;;;;;;;23.50;85.30;;;;;;5093823;28;19978;-54
2022/08/30 02:30:45;;;;;;;;;;;23.50;85.30;;;;;;5093832;28;19908;-55
2022/08/30 02:33:11;;;;;;;;;;;23.50;85.30;;;;;;5092399;28;20022;-51
2022/08/30 02:35:36;;;;;;;;;;;23.50;85.30;;;;;;5093750;28;19940;-54
2022/08/30 02:38:02;;;;;;;;;;;23.50;85.30;;;;;;5093966;28;19909;-53
2022/08/30 02:40:28;;;;;;;;;;;23.50;85.30;;;;;;5093710;28;19914;-55
2022/08/30 02:42:53;;;;;;;;;;;23.50;85.30;;;;;;5093921;28;19916;-53
2022/08/30 02:45:19;;;;;;;;;;;23.50;85.30;;;;;;5093926;28;19999;-52
2022/08/30 02:47:44;;;;;;;;;;;23.50;85.40;;;;;;5093975;28;19908;-50
2022/08/30 02:50:10;;;;;;;;;;;23.50;85.40;;;;;;5093917;28;20354;-53
2022/08/30 02:52:36;;;;;;;;;;;23.50;85.40;;;;;;5093993;28;19951;-53
2022/08/30 02:55:03;;;;;;;;;;;23.50;85.40;;;;;;5093577;28;20002;-54
2022/08/30 02:57:28;;;;;;;;;;;23.50;85.30;;;;;;5094005;28;19914;-54
2022/08/30 02:59:54;;;;;;;;;;;23.50;85.40;;;;;;5093879;28;20015;-50
2022/08/30 03:02:20;;;;;;;;;;;23.50;85.30;;;;;;5093632;28;19924;-51
2022/08/30 03:04:46;;;;;;;;;;;23.50;85.40;;;;;;5093362;28;19912;-53
2022/08/30 03:07:12;;;;;;;;;;;23.50;85.30;;;;;;5093765;28;19912;-53
2022/08/30 03:09:37;;;;;;;;;;;23.50;85.40;;;;;;5093330;28;20021;-53
2022/08/30 03:12:04;;;;;;;;;;;23.50;85.40;;;;;;5093753;28;19908;-51
2022/08/30 03:14:30;;;;;;;;;;;23.50;85.40;;;;;;5093498;28;19912;-53
2022/08/30 03:16:56;;;;;;;;;;;23.50;85.40;;;;;;5093381;28;19916;-50
2022/08/30 03:19:22;;;;;;;;;;;23.40;85.30;;;;;;5093410;28;19908;-51
2022/08/30 03:21:47;;;;;;;;;;;23.40;85.40;;;;;;5093591;28;19908;-54
2022/08/30 03:24:13;;;;;;;;;;;23.40;85.40;;;;;;5093227;28;19912;-53
2022/08/30 03:26:38;;;;;;;;;;;23.40;85.40;;;;;;5094214;28;19943;-51
2022/08/30 03:29:04;;;;;;;;;;;23.40;85.40;;;;;;5097127;28;20354;-54
2022/08/30 03:31:29;;;;;;;;;;;23.40;85.40;;;;;;5096992;28;19958;-54
2022/08/30 03:33:55;;;;;;;;;;;23.40;85.30;;;;;;5096900;28;19991;-55
2022/08/30 03:36:20;;;;;;;;;;;23.40;85.40;;;;;;5096613;28;19908;-55
2022/08/30 03:38:46;;;;;;;;;;;23.40;85.30;;;;;;5096725;28;19908;-53
2022/08/30 03:41:11;;;;;;;;;;;23.50;85.40;;;;;;5095462;28;20020;-54
2022/08/30 03:43:37;;;;;;;;;;;23.50;85.40;;;;;;5095550;28;19919;-53
2022/08/30 03:46:02;;;;;;;;;;;23.40;85.40;;;;;;5096462;28;19912;-50
2022/08/30 03:48:28;;;;;;;;;;;23.40;85.30;;;;;;5096558;28;20089;-53
2022/08/30 03:50:54;;;;;;;;;;;23.40;85.40;;;;;;5095318;28;19912;-53
2022/08/30 03:53:19;;;;;;;;;;;23.40;85.30;;;;;;5096373;28;19915;-53
2022/08/30 03:55:45;;;;;;;;;;;23.40;85.40;;;;;;5096236;28;19908;-53
2022/08/30 03:58:10;;;;;;;;;;;23.40;85.40;;;;;;5096570;28;20376;-54
2022/08/30 04:00:36;;;;;;;;;;;23.40;85.40;;;;;;5096463;28;19998;-53
2022/08/30 04:03:02;;;;;;;;;;;23.40;85.40;;;;;;5096132;28;20091;-52
2022/08/30 04:05:27;;;;;;;;;;;23.40;85.40;;;;;;5096360;28;19947;-53
2022/08/30 04:07:53;;;;;;;;;;;23.40;85.40;;;;;;5096026;28;20264;-53
2022/08/30 04:10:21;;;;;;;;;;;23.40;85.40;;;;;;5096212;28;19908;-51
2022/08/30 04:12:48;;;;;;;;;;;23.40;85.40;;;;;;5095973;28;19916;-53
2022/08/30 04:15:14;;;;;;;;;;;23.40;85.40;;;;;;5095733;28;20402;-52
2022/08/30 04:17:40;;;;;;;;;;;23.40;85.30;;;;;;5094692;28;20313;-52
2022/08/30 04:20:06;;;;;;;;;;;23.40;85.30;;;;;;5096253;28;19908;-51
2022/08/30 04:22:31;;;;;;;;;;;23.40;85.40;;;;;;5094590;28;20351;-51
2022/08/30 04:24:56;;;;;;;;;;;23.40;85.30;;;;;;5096036;28;19931;-54
2022/08/30 04:27:22;;;;;;;;;;;23.40;85.40;;;;;;5094653;28;20339;-50
2022/08/30 04:29:47;;;;;;;;;;;23.40;85.40;;;;;;5095475;28;19948;-49
2022/08/30 04:32:13;;;;;;;;;;;23.40;85.40;;;;;;5096055;28;19922;-51
2022/08/30 04:34:38;;;;;;;;;;;23.40;85.40;;;;;;5095543;28;19908;-52
2022/08/30 04:37:04;;;;;;;;;;;23.40;85.40;;;;;;5095333;28;20420;-53
2022/08/30 04:39:29;;;;;;;;;;;23.40;85.40;;;;;;5095774;28;19908;-53
2022/08/30 04:41:56;;;;;;;;;;;23.40;85.40;;;;;;5095978;28;19991;-54
2022/08/30 04:44:22;;;;;;;;;;;23.40;85.40;;;;;;5095211;28;19920;-54
2022/08/30 04:46:47;;;;;;;;;;;23.40;85.40;;;;;;5095084;28;19961;-53
2022/08/30 04:49:13;;;;;;;;;;;23.40;85.40;;;;;;5095271;28;20335;-54
2022/08/30 04:51:38;;;;;;;;;;;23.30;85.40;;;;;;5095397;28;19947;-52
2022/08/30 04:54:04;;;;;;;;;;;23.40;85.40;;;;;;5095300;28;20018;-50
2022/08/30 04:56:29;;;;;;;;;;;23.40;85.40;;;;;;5095091;28;19916;-51
2022/08/30 04:58:55;;;;;;;;;;;23.40;85.40;;;;;;5095106;28;19908;-52
2022/08/30 05:01:25;;;;;;;;;;;23.40;85.40;;;;;;5093870;28;19908;-52
2022/08/30 05:03:51;;;;;;;;;;;23.40;85.40;;;;;;5095134;28;19926;-54
2022/08/30 05:06:17;;;;;;;;;;;23.40;85.40;;;;;;5094995;28;19951;-51
2022/08/30 05:08:43;;;;;;;;;;;23.40;85.40;;;;;;5094939;28;20256;-51
2022/08/30 05:11:09;;;;;;;;;;;23.40;85.30;;;;;;5094605;28;20014;-53
2022/08/30 05:13:35;;;;;;;;;;;23.40;85.30;;;;;;5093620;28;19908;-52
2022/08/30 05:16:01;;;;;;;;;;;23.40;85.40;;;;;;5094310;28;19912;-54
2022/08/30 05:18:27;;;;;;;;;;;23.40;85.40;;;;;;5093134;28;19908;-53
2022/08/30 05:21:11;;;;;;;;;;;23.40;85.30;;;;;;5094282;28;20310;-52
2022/08/30 05:23:37;;;;;;;;;;;23.40;85.30;;;;;;5094628;28;19939;-50
2022/08/30 05:26:04;;;;;;;;;;;23.40;85.40;;;;;;5094557;28;19908;-51
2022/08/30 05:28:29;;;;;;;;;;;23.40;85.30;;;;;;5094564;28;20278;-54
2022/08/30 05:30:54;;;;;;;;;;;23.40;85.30;;;;;;5094496;28;20011;-50
2022/08/30 05:33:20;;;;;;;;;;;23.50;85.30;;;;;;5094582;28;19915;-52
2022/08/30 05:35:45;;;;;;;;;;;23.40;85.30;;;;;;5094426;28;19908;-53
2022/08/30 05:38:11;;;;;;;;;;;23.40;85.30;;;;;;5094397;28;20354;-52
2022/08/30 05:40:39;;;;;;;;;;;23.40;85.30;;;;;;5094386;28;20321;-54
2022/08/30 05:43:04;;;;;;;;;;;23.40;85.30;;;;;;5093926;28;19965;-53
2022/08/30 05:45:30;;;;;;;;;;;23.40;85.30;;;;;;5094253;28;19909;-54
2022/08/30 05:47:55;;;;;;;;;;;23.40;85.20;;;;;;5092945;28;20011;-53
2022/08/30 05:50:22;;;;;;;;;;;23.40;85.30;;;;;;5093871;28;20355;-53
2022/08/30 05:52:47;;;;;;;;;;;23.40;85.30;;;;;;5092927;28;19908;-54
2022/08/30 05:55:13;;;;;;;;;;;23.40;85.30;;;;;;5094038;28;19908;-51
2022/08/30 05:57:39;;;;;;;;;;;23.40;85.30;;;;;;5092861;28;19961;-55
2022/08/30 06:00:07;;;;;;;;;;;23.40;85.30;;;;;;5094446;28;20366;-51
2022/08/30 06:02:32;;;;;;;;;;;23.50;85.30;;;;;;5094175;28;19924;-53
2022/08/30 06:04:58;;;;;;;;;;;23.50;85.30;;;;;;5094081;28;19927;-50
2022/08/30 06:07:24;;;;;;;;;;;23.40;85.30;;;;;;5093733;28;19912;-50
2022/08/30 06:09:49;;;;;;;;;;;23.40;85.30;;;;;;5094402;28;19918;-50
2022/08/30 06:12:15;;;;;;;;;;;23.40;85.20;;;;;;5094046;28;19909;-50
2022/08/30 06:14:40;;;;;;;;;;;23.40;85.20;;;;;;5092621;28;19909;-53
2022/08/30 06:17:06;;;;;;;;;;;23.40;85.30;;;;;;5093842;28;19915;-52
2022/08/30 06:19:31;;;;;;;;;;;23.40;85.30;;;;;;5093488;28;19908;-52
2022/08/30 06:21:57;;;;;;;;;;;23.50;85.30;;;;;;5093430;28;19908;-53
2022/08/30 06:24:22;;;;;;;;;;;23.40;85.30;;;;;;5093770;28;19974;-50
2022/08/30 06:26:48;;;;;;;;;;;23.40;85.40;;;;;;5093524;28;20385;-52
2022/08/30 06:29:14;;;;;;;;;;;23.40;85.40;;;;;;5094247;28;19919;-52
2022/08/30 06:31:40;;;;;;;;;;;23.40;85.40;;;;;;5093891;28;19908;-54
2022/08/30 06:34:06;;;;;;;;;;;23.40;85.40;;;;;;5093790;28;19922;-52
2022/08/30 06:36:31;;;;;;;;;;;23.40;85.40;;;;;;5093679;28;20362;-53
2022/08/30 06:38:57;;;;;;;;;;;23.40;85.40;;;;;;5093541;28;19908;-55
2022/08/30 06:41:24;;;;;;;;;;;23.40;85.40;;;;;;5093499;28;19962;-50
2022/08/30 06:43:50;;;;;;;;;;;23.30;85.30;;;;;;5092065;28;19923;-54
2022/08/30 06:46:20;;;;;;;;;;;23.30;85.40;;;;;;5094008;28;19908;-53
2022/08/30 06:48:45;;;;;;;;;;;23.30;85.40;;;;;;5093812;28;19909;-53
2022/08/30 06:51:11;;;;;;;;;;;23.30;85.40;;;;;;5093150;28;19953;-52
2022/08/30 06:53:36;;;;;;;;;;;23.30;85.40;;;;;;5093204;28;20015;-55
2022/08/30 06:56:04;;;;;;;;;;;23.40;85.40;;;;;;5093331;28;19915;-53
2022/08/30 06:58:30;;;;;;;;;;;23.30;85.40;;;;;;5093554;28;19916;-52
2022/08/30 07:00:55;;;;;;;;;;;23.40;85.40;;;;;;5093286;28;20274;-52
2022/08/30 07:03:21;;;;;;;;;;;23.40;85.40;;;;;;5096582;28;19920;-56
2022/08/30 07:05:47;;;;;;;;;;;23.30;85.40;;;;;;5097391;28;19908;-53
2022/08/30 07:08:12;;;;;;;;;;;23.30;85.40;;;;;;5096077;28;19912;-52
2022/08/30 07:10:39;;;;;;;;;;;23.30;85.40;;;;;;5096062;28;20412;-52
2022/08/30 07:13:05;;;;;;;;;;;23.30;85.40;;;;;;5097411;28;19908;-52
2022/08/30 07:15:30;;;;;;;;;;;23.40;85.40;;;;;;5096938;28;19908;-50
2022/08/30 07:20:40;;;;;;;;;;;23.40;85.40;;;;;;5096806;28;19915;-50
2022/08/30 07:23:05;;;;;;;;;;;23.40;85.40;;;;;;5095395;28;19917;-53
2022/08/30 07:25:31;;;;;;;;;;;23.40;85.40;;;;;;5097033;28;19909;-55
2022/08/30 07:27:57;;;;;;;;;;;23.40;85.40;;;;;;5097017;28;20335;-53
2022/08/30 07:30:23;;;;;;;;;;;23.40;85.40;;;;;;5096718;28;19927;-55
2022/08/30 07:32:48;;;;;;;;;;;23.40;85.40;;;;;;5096675;28;19955;-50
2022/08/30 07:35:14;;;;;;;;;;;23.40;85.40;;;;;;5096502;28;19918;-53
2022/08/30 07:37:40;;;;;;;;;;;23.40;85.30;;;;;;5096479;28;19915;-54
2022/08/30 07:40:06;;;;;;;;;;;23.50;85.40;;;;;;5096385;28;19951;-49
2022/08/30 07:42:31;;;;;;;;;;;23.40;85.30;;;;;;5096581;28;19962;-52
2022/08/30 07:44:57;;;;;;;;;;;23.40;85.30;;;;;;5096152;28;20347;-53
2022/08/30 07:47:22;;;;;;;;;;;23.50;85.30;;;;;;5096143;28;19908;-53
2022/08/30 07:49:48;;;;;;;;;;;23.50;85.30;;;;;;5096763;28;20352;-53
2022/08/30 07:52:13;;;;;;;;;;;23.50;85.30;;;;;;5096518;28;19908;-53
2022/08/30 07:54:39;;;;;;;;;;;23.50;85.30;;;;;;5096411;28;20022;-52
2022/08/30 07:57:04;;;;;;;;;;;23.50;85.30;;;;;;5096150;28;20377;-53
2022/08/30 07:59:29;;;;;;;;;;;23.50;85.30;;;;;;5096258;28;19908;-50
2022/08/30 08:01:55;;;;;;;;;;;23.50;85.20;;;;;;5096137;28;19920;-49
2022/08/30 08:04:20;;;;;;;;;;;23.50;85.20;;;;;;5094982;28;20378;-55
2022/08/30 08:06:46;;;;;;;;;;;23.50;85.20;;;;;;5096118;28;19908;-50
2022/08/30 08:09:11;;;;;;;;;;;23.50;85.30;;;;;;5095961;28;20412;-53
2022/08/30 08:11:39;;;;;;;;;;;23.50;85.20;;;;;;5096002;28;19912;-55
2022/08/30 08:14:04;;;;;;;;;;;23.50;85.20;;;;;;5095546;28;19918;-52
2022/08/30 08:16:31;;;;;;;;;;;23.50;85.20;;;;;;5094818;28;20339;-55
2022/08/30 08:18:57;;;;;;;;;;;23.50;85.20;;;;;;5094577;28;19958;-55
2022/08/30 08:21:23;;;;;;;;;;;23.50;85.20;;;;;;5095854;28;19939;-49
2022/08/30 08:23:50;;;;;;;;;;;23.50;85.20;;;;;;5095689;28;19916;-52
2022/08/30 08:26:15;;;;;;;;;;;23.50;85.20;;;;;;5094473;28;19942;-53
2022/08/30 08:28:41;;;;;;;;;;;23.50;85.20;;;;;;5095275;28;19908;-52
2022/08/30 08:31:14;;;;;;;;;;;23.50;85.20;;;;;;5095810;28;20014;-52
2022/08/30 08:33:39;;;;;;;;;;;23.50;85.10;;;;;;5095548;28;20351;-51
2022/08/30 08:36:05;;;;;;;;;;;23.50;85.10;;;;;;5095353;28;19914;-52
2022/08/30 08:38:30;;;;;;;;;;;23.50;85.20;;;;;;5095364;28;20367;-52
2022/08/30 08:41:06;;;;;;;;;;;23.50;85.20;;;;;;5095436;28;19998;-55
2022/08/30 08:43:33;;;;;;;;;;;23.50;85.20;;;;;;5095311;28;19923;-52
2022/08/30 08:46:02;;;;;;;;;;;23.50;85.10;;;;;;5095237;28;19915;-53
2022/08/30 08:48:44;;;;;;;;;;;23.50;85.20;;;;;;5095122;28;19908;-53
2022/08/30 08:53:58;;;;;;;;;;;23.50;85.10;;;;;;5095110;28;19972;-52
2022/08/30 08:56:23;;;;;;;;;;;23.50;85.20;;;;;;5093624;28;19908;-51
2022/08/30 08:58:50;;;;;;;;;;;23.50;85.20;;;;;;5095380;28;19908;-54
2022/08/30 09:01:17;;;;;;;;;;;23.50;85.10;;;;;;5095202;28;19998;-51
2022/08/30 09:03:43;;;;;;;;;;;23.50;85.10;;;;;;5094334;28;19920;-52
2022/08/30 09:06:18;;;;;;;;;;;23.50;85.10;;;;;;5094555;28;19977;-51
2022/08/30 09:08:44;;;;;;;;;;;23.50;85.00;;;;;;5095274;28;20335;-51
2022/08/30 09:11:15;;;;;;;;;;;23.50;85.10;;;;;;5093530;28;19977;-52
2022/08/30 09:13:41;;;;;;;;;;;23.50;85.10;;;;;;5094487;28;19908;-52
2022/08/30 09:16:06;;;;;;;;;;;23.60;85.10;;;;;;5094781;28;20367;-52
2022/08/30 09:18:40;;;;;;;;;;;23.50;85.10;;;;;;5093247;28;19908;-54
2022/08/30 09:21:06;;;;;;;;;;;23.50;85.10;;;;;;5094702;28;19908;-53
2022/08/30 09:23:32;;;;;;;;;;;23.50;85.10;;;;;;5094328;28;19916;-49
2022/08/30 09:25:59;;;;;;;;;;;23.60;85.10;;;;;;5093774;28;19938;-54
2022/08/30 09:28:29;;;;;;;;;;;23.50;85.10;;;;;;5093239;28;19912;-51
2022/08/30 09:31:00;;;;;;;;;;;23.50;85.10;;;;;;5094615;28;19908;-52
2022/08/30 09:33:26;;;;;;;;;;;23.50;85.10;;;;;;5094341;28;19908;-53
2022/08/30 09:35:51;;;;;;;;;;;23.50;85.10;;;;;;5094258;28;20316;-53
2022/08/30 09:38:21;;;;;;;;;;;23.50;85.10;;;;;;5092933;28;20347;-53
2022/08/30 09:40:47;;;;;;;;;;;23.50;85.10;;;;;;5094102;28;19927;-54
2022/08/30 09:43:15;;;;;;;;;;;23.50;85.10;;;;;;5094423;28;20363;-52
2022/08/30 09:45:42;;;;;;;;;;;23.50;85.00;;;;;;5094385;28;19908;-54
2022/08/30 09:48:27;;;;;;;;;;;23.50;85.00;;;;;;5094055;28;19908;-53
2022/08/30 09:51:13;;;;;;;;;;;23.50;85.00;;;;;;5094120;28;20351;-55
2022/08/30 09:53:44;;;;;;;;;;;23.50;85.00;;;;;;5093554;28;20371;-53
2022/08/30 09:56:17;;;;;;;;;;;23.50;85.00;;;;;;5093756;28;19991;-55
2022/08/30 09:59:01;;;;;;;;;;;23.50;85.10;;;;;;5093977;28;19914;-54
2022/08/30 10:01:29;;;;;;;;;;;23.50;85.10;;;;;;5093809;28;19908;-50
2022/08/30 10:03:59;;;;;;;;;;;23.60;85.10;;;;;;5094244;28;19924;-53
2022/08/30 10:06:29;;;;;;;;;;;23.60;85.10;;;;;;5093691;28;19912;-52
2022/08/30 10:08:58;;;;;;;;;;;23.50;85.10;;;;;;5093781;28;19995;-55
2022/08/30 10:11:34;;;;;;;;;;;23.60;85.10;;;;;;5093504;28;20383;-55
2022/08/30 10:14:03;;;;;;;;;;;23.50;85.10;;;;;;5093880;28;19954;-55
2022/08/30 10:16:34;;;;;;;;;;;23.60;85.10;;;;;;5093917;28;19912;-53
2022/08/30 10:19:08;;;;;;;;;;;23.50;85.10;;;;;;5094004;28;19954;-52
2022/08/30 10:21:47;;;;;;;;;;;23.60;85.10;;;;;;5093998;28;19908;-55
2022/08/30 10:24:14;;;;;;;;;;;23.60;85.10;;;;;;5093498;28;19916;-52
2022/08/30 10:26:43;;;;;;;;;;;23.60;85.10;;;;;;5094287;28;19916;-52
2022/08/30 10:29:14;;;;;;;;;;;23.60;85.10;;;;;;5093531;28;19961;-52
2022/08/30 10:31:43;;;;;;;;;;;23.60;85.10;;;;;;5093905;28;19958;-53
2022/08/30 10:34:13;;;;;;;;;;;23.60;85.10;;;;;;5093853;28;20355;-53
2022/08/30 10:36:47;;;;;;;;;;;23.60;85.10;;;;;;5096242;28;20010;-50
2022/08/30 10:39:16;;;;;;;;;;;23.60;85.10;;;;;;5098104;28;19909;-53
2022/08/30 10:41:44;;;;;;;;;;;23.60;85.10;;;;;;5097993;28;19957;-54
2022/08/30 10:44:16;;;;;;;;;;;23.60;85.10;;;;;;5097539;28;19916;-53
2022/08/30 10:47:01;;;;;;;;;;;23.60;85.00;;;;;;5096587;28;20403;-53
2022/08/30 10:49:28;;;;;;;;;;;23.60;85.00;;;;;;5097405;28;19953;-49
2022/08/30 10:51:56;;;;;;;;;;;23.60;85.00;;;;;;5097322;28;19908;-53
2022/08/30 10:54:27;;;;;;;;;;;23.60;85.00;;;;;;5097681;28;20020;-53
2022/08/30 10:56:53;;;;;;;;;;;23.60;85.00;;;;;;5097414;28;19993;-54
2022/08/30 10:59:19;;;;;;;;;;;23.60;85.10;;;;;;5097275;28;19908;-50
2022/08/30 11:01:56;;;;;;;;;;;23.60;85.00;;;;;;5096069;28;20363;-54
2022/08/30 11:04:40;;;;;;;;;;;23.60;85.00;;;;;;5097347;28;19923;-53
2022/08/30 11:07:17;;;;;;;;;;;23.60;85.00;;;;;;5097072;28;19915;-53
2022/08/30 11:09:50;;;;;;;;;;;23.60;85.00;;;;;;5096952;28;20371;-50
2022/08/30 11:12:27;;;;;;;;;;;23.60;85.10;;;;;;5097299;28;19908;-51
2022/08/30 11:14:53;;;;;;;;;;;23.60;85.10;;;;;;5097114;28;19912;-51
2022/08/30 11:17:28;;;;;;;;;;;23.60;85.00;;;;;;5095640;28;20091;-51
2022/08/30 11:19:55;;;;;;;;;;;23.60;85.10;;;;;;5097033;28;19908;-51
2022/08/30 11:22:29;;;;;;;;;;;23.60;85.60;;;;;;5097051;28;19909;-51
2022/08/30 11:25:09;;;;;;;;;;;23.60;85.10;;;;;;5096731;28;19920;-53
2022/08/30 11:27:42;;;;;;;;;;;23.60;85.00;;;;;;5096691;28;19916;-51
2022/08/30 11:30:23;;;;;;;;;;;23.60;85.00;;;;;;5096649;28;19915;-53
2022/08/30 11:33:23;;;;;;;;;;;23.60;85.00;;;;;;5096710;28;19908;-50
2022/08/30 11:35:51;;;;;;;;;;;23.60;85.00;;;;;;5096471;28;19929;-53
2022/08/30 11:38:16;;;;;;;;;;;23.60;85.00;;;;;;5096755;28;20405;-53
2022/08/30 11:40:46;;;;;;;;;;;23.60;85.00;;;;;;5096344;28;19909;-52
2022/08/30 11:43:30;;;;;;;;;;;23.60;85.00;;;;;;5094767;28;19927;-54
2022/08/30 11:46:12;;;;;;;;;;;23.60;85.00;;;;;;5096400;28;19908;-52
2022/08/30 11:48:42;;;;;;;;;;;23.60;85.00;;;;;;5095545;28;19931;-53
2022/08/30 11:51:13;;;;;;;;;;;23.60;85.00;;;;;;5096390;28;19943;-54
2022/08/30 11:53:50;;;;;;;;;;;23.60;85.00;;;;;;5096391;28;19908;-52
2022/08/30 11:56:25;;;;;;;;;;;23.60;85.00;;;;;;5096758;28;19908;-51
2022/08/30 11:58:56;;;;;;;;;;;23.60;84.90;;;;;;5096243;28;19952;-54
2022/08/30 12:01:24;;;;;;;;;;;23.60;85.00;;;;;;5096093;28;20386;-50
2022/08/30 12:04:10;;;;;;;;;;;23.60;85.00;;;;;;5095815;28;19943;-52
2022/08/30 12:06:50;;;;;;;;;;;23.60;84.90;;;;;;5096279;28;19912;-53
2022/08/30 12:09:16;;;;;;;;;;;23.60;85.00;;;;;;5096204;28;20009;-54
2022/08/30 12:11:54;;;;;;;;;;;23.60;85.00;;;;;;5095916;28;20438;-50
2022/08/30 12:14:37;;;;;;;;;;;23.60;85.00;;;;;;5096026;28;19995;-55
2022/08/30 12:20:03;;;;;;;;;;;23.60;85.00;;;;;;5096026;28;19970;-54
2022/08/30 12:22:32;;;;;;;;;;;23.60;85.00;;;;;;5095778;28;19912;-55
2022/08/30 12:24:58;;;;;;;;;;;23.60;84.90;;;;;;5095470;28;20386;-52
2022/08/30 12:27:29;;;;;;;;;;;23.60;84.90;;;;;;5095375;28;19912;-55
2022/08/30 12:30:00;;;;;;;;;;;23.60;84.90;;;;;;5095418;28;19912;-56
2022/08/30 12:32:26;;;;;;;;;;;23.60;85.00;;;;;;5094980;28;20259;-51
2022/08/30 12:35:02;;;;;;;;;;;23.60;84.90;;;;;;5094614;28;20346;-50
2022/08/30 12:37:35;;;;;;;;;;;23.60;84.90;;;;;;5093979;28;19970;-52
2022/08/30 12:40:10;;;;;;;;;;;23.60;84.90;;;;;;5095217;28;20003;-51
2022/08/30 12:42:50;;;;;;;;;;;23.60;84.90;;;;;;5095572;28;19915;-52
2022/08/30 12:45:19;;;;;;;;;;;23.60;84.90;;;;;;5095044;28;19931;-52
2022/08/30 12:47:51;;;;;;;;;;;23.60;84.90;;;;;;5094933;28;19912;-49
2022/08/30 12:50:22;;;;;;;;;;;23.60;84.90;;;;;;5095391;28;19908;-55
2022/08/30 12:52:55;;;;;;;;;;;23.60;84.90;;;;;;5094252;28;20008;-51
2022/08/30 12:55:22;;;;;;;;;;;23.60;84.90;;;;;;5095400;28;19952;-51
2022/08/30 12:57:48;;;;;;;;;;;23.60;84.90;;;;;;5095055;28;19908;-55
2022/08/30 13:00:27;;;;;;;;;;;23.60;84.90;;;;;;5095147;28;20331;-53
2022/08/30 13:02:54;;;;;;;;;;;23.60;84.90;;;;;;5093700;28;19920;-52
2022/08/30 13:05:31;;;;;;;;;;;23.70;84.90;;;;;;5094892;28;19912;-55
2022/08/30 13:08:12;;;;;;;;;;;23.60;84.90;;;;;;5095031;28;19908;-54
2022/08/30 13:10:47;;;;;;;;;;;23.60;84.90;;;;;;5095316;28;19955;-54
2022/08/30 13:13:24;;;;;;;;;;;23.60;84.90;;;;;;5094680;28;19909;-53
2022/08/30 13:15:50;;;;;;;;;;;23.60;84.90;;;;;;5094608;28;19943;-55
2022/08/30 13:18:26;;;;;;;;;;;23.60;84.90;;;;;;5094715;28;19908;-55
2022/08/30 13:21:08;;;;;;;;;;;23.60;84.90;;;;;;5094664;28;19908;-54
2022/08/30 13:23:33;;;;;;;;;;;23.60;84.90;;;;;;5093503;28;19912;-54
2022/08/30 13:25:59;;;;;;;;;;;23.60;84.80;;;;;;5094276;28;19919;-54
2022/08/30 13:28:24;;;;;;;;;;;23.60;84.80;;;;;;5094233;28;20002;-50
2022/08/30 13:30:50;;;;;;;;;;;23.60;84.90;;;;;;5094324;28;19934;-54
2022/08/30 13:33:15;;;;;;;;;;;23.60;84.80;;;;;;5092759;28;19953;-51
2022/08/30 13:35:41;;;;;;;;;;;23.60;84.80;;;;;;5094579;28;19908;-55
2022/08/30 13:38:07;;;;;;;;;;;23.60;84.80;;;;;;5094339;28;19916;-53
2022/08/30 13:40:33;;;;;;;;;;;23.60;84.90;;;;;;5092902;28;20343;-52
2022/08/30 13:42:58;;;;;;;;;;;23.60;84.80;;;;;;5093944;28;19908;-48
2022/08/30 13:45:24;;;;;;;;;;;23.60;84.90;;;;;;5092848;28;19922;-51
2022/08/30 13:47:49;;;;;;;;;;;23.60;84.80;;;;;;5092893;28;19909;-54
2022/08/30 13:50:15;;;;;;;;;;;23.60;84.90;;;;;;5094153;28;19912;-51
2022/08/30 13:52:40;;;;;;;;;;;23.60;84.90;;;;;;5093986;28;19908;-51
2022/08/30 13:55:06;;;;;;;;;;;23.70;84.90;;;;;;5093963;28;20339;-51
2022/08/30 13:57:32;;;;;;;;;;;23.60;84.80;;;;;;5092482;28;19938;-55
2022/08/30 13:59:57;;;;;;;;;;;23.70;84.90;;;;;;5092371;28;19908;-54
2022/08/30 14:02:23;;;;;;;;;;;23.70;84.90;;;;;;5092133;28;19920;-55
2022/08/30 14:04:48;;;;;;;;;;;23.60;84.80;;;;;;5093884;28;19919;-51
2022/08/30 14:07:14;;;;;;;;;;;23.60;84.80;;;;;;5093870;28;19923;-50
2022/08/30 14:09:39;;;;;;;;;;;23.70;84.90;;;;;;5094270;28;19929;-54
2022/08/30 14:12:05;;;;;;;;;;;23.70;84.90;;;;;;5093210;28;19908;-53
2022/08/30 14:14:30;;;;;;;;;;;23.60;84.80;;;;;;5092473;28;20370;-50
2022/08/30 14:16:56;;;;;;;;;;;23.60;84.80;;;;;;5093394;28;20279;-53
2022/08/30 14:19:21;;;;;;;;;;;23.60;84.80;;;;;;5092433;28;19909;-53
2022/08/30 14:21:47;;;;;;;;;;;23.60;84.80;;;;;;5093872;28;20300;-55
2022/08/30 14:24:12;;;;;;;;;;;23.60;84.80;;;;;;5092497;28;19919;-54
2022/08/30 14:26:39;;;;;;;;;;;23.70;84.90;;;;;;5092377;28;20003;-53
2022/08/30 14:29:06;;;;;;;;;;;23.60;84.90;;;;;;5093624;28;19912;-53